<?xml version="1.0" encoding="UTF-8" standalone="no" ?>
<gpx xmlns="http://www.topografix.com/GPX/1/1" xmlns:xsi="http://www.w3.org/2001/XMLSchema-instance" xsi:schemaLocation="http://www.topografix.com/GPX/1/1 http://www.topografix.com/GPX/1/1/gpx.xsd" version="1.1" creator="VisuGPX - https://www.visugpx.com">
  <metadata>
    <name>26-CD-Vercors</name>
    <desc><![CDATA[26-CD-Vercors : lac de Bouvante]]></desc>
  </metadata>
  <trk>
    <name><![CDATA[2015-06-26-lac bouvante]]></name>
    <trkseg>
      <trkpt lat="44.93045" lon="5.26533">
        <ele>600.3</ele>
        <time>2015-06-26T19:15:00Z</time>
      </trkpt>
      <trkpt lat="44.93036" lon="5.26533">
        <ele>597.4</ele>
        <time>2015-06-26T19:15:14Z</time>
      </trkpt>
      <trkpt lat="44.93036" lon="5.26534">
        <ele>597.1</ele>
        <time>2015-06-26T19:15:15Z</time>
      </trkpt>
      <trkpt lat="44.9305" lon="5.26528">
        <ele>592.5</ele>
        <time>2015-06-26T19:15:35Z</time>
      </trkpt>
      <trkpt lat="44.93057" lon="5.26524">
        <ele>591.8</ele>
        <time>2015-06-26T19:15:41Z</time>
      </trkpt>
      <trkpt lat="44.93064" lon="5.26518">
        <ele>591.2</ele>
        <time>2015-06-26T19:15:48Z</time>
      </trkpt>
      <trkpt lat="44.93072" lon="5.26517">
        <ele>591</ele>
        <time>2015-06-26T19:15:56Z</time>
      </trkpt>
      <trkpt lat="44.9308" lon="5.26517">
        <ele>590.4</ele>
        <time>2015-06-26T19:16:02Z</time>
      </trkpt>
      <trkpt lat="44.93089" lon="5.26517">
        <ele>590.4</ele>
        <time>2015-06-26T19:16:09Z</time>
      </trkpt>
      <trkpt lat="44.93098" lon="5.2652">
        <ele>590.7</ele>
        <time>2015-06-26T19:16:16Z</time>
      </trkpt>
      <trkpt lat="44.93099" lon="5.2652">
        <ele>590.7</ele>
        <time>2015-06-26T19:16:17Z</time>
      </trkpt>
      <trkpt lat="44.93115" lon="5.26519">
        <ele>590</ele>
        <time>2015-06-26T19:16:39Z</time>
      </trkpt>
      <trkpt lat="44.93123" lon="5.26525">
        <ele>589.6</ele>
        <time>2015-06-26T19:16:50Z</time>
      </trkpt>
      <trkpt lat="44.93129" lon="5.26531">
        <ele>589.6</ele>
        <time>2015-06-26T19:16:57Z</time>
      </trkpt>
      <trkpt lat="44.93137" lon="5.26535">
        <ele>588.9</ele>
        <time>2015-06-26T19:17:05Z</time>
      </trkpt>
      <trkpt lat="44.93145" lon="5.26538">
        <ele>588.8</ele>
        <time>2015-06-26T19:17:13Z</time>
      </trkpt>
      <trkpt lat="44.93154" lon="5.26538">
        <ele>588.8</ele>
        <time>2015-06-26T19:17:21Z</time>
      </trkpt>
      <trkpt lat="44.93155" lon="5.26537">
        <ele>588.9</ele>
        <time>2015-06-26T19:17:22Z</time>
      </trkpt>
      <trkpt lat="44.93167" lon="5.26523">
        <ele>588.2</ele>
        <time>2015-06-26T19:17:40Z</time>
      </trkpt>
      <trkpt lat="44.93172" lon="5.26513">
        <ele>587.5</ele>
        <time>2015-06-26T19:17:46Z</time>
      </trkpt>
      <trkpt lat="44.93175" lon="5.26502">
        <ele>588.3</ele>
        <time>2015-06-26T19:17:57Z</time>
      </trkpt>
      <trkpt lat="44.9318" lon="5.26492">
        <ele>587.5</ele>
        <time>2015-06-26T19:18:06Z</time>
      </trkpt>
      <trkpt lat="44.93187" lon="5.26485">
        <ele>586.6</ele>
        <time>2015-06-26T19:18:16Z</time>
      </trkpt>
      <trkpt lat="44.93194" lon="5.2648">
        <ele>586.4</ele>
        <time>2015-06-26T19:18:21Z</time>
      </trkpt>
      <trkpt lat="44.932" lon="5.26473">
        <ele>586.5</ele>
        <time>2015-06-26T19:18:27Z</time>
      </trkpt>
      <trkpt lat="44.93202" lon="5.26471">
        <ele>586.3</ele>
        <time>2015-06-26T19:18:28Z</time>
      </trkpt>
      <trkpt lat="44.93215" lon="5.26461">
        <ele>585.8</ele>
        <time>2015-06-26T19:18:41Z</time>
      </trkpt>
      <trkpt lat="44.9322" lon="5.26451">
        <ele>584.7</ele>
        <time>2015-06-26T19:18:51Z</time>
      </trkpt>
      <trkpt lat="44.93228" lon="5.26448">
        <ele>584</ele>
        <time>2015-06-26T19:19:01Z</time>
      </trkpt>
      <trkpt lat="44.93237" lon="5.26451">
        <ele>583.7</ele>
        <time>2015-06-26T19:19:12Z</time>
      </trkpt>
      <trkpt lat="44.93245" lon="5.26454">
        <ele>583.4</ele>
        <time>2015-06-26T19:19:20Z</time>
      </trkpt>
      <trkpt lat="44.93251" lon="5.26462">
        <ele>582.5</ele>
        <time>2015-06-26T19:19:27Z</time>
      </trkpt>
      <trkpt lat="44.93258" lon="5.26469">
        <ele>583</ele>
        <time>2015-06-26T19:19:36Z</time>
      </trkpt>
      <trkpt lat="44.93259" lon="5.26469">
        <ele>583.1</ele>
        <time>2015-06-26T19:19:37Z</time>
      </trkpt>
      <trkpt lat="44.9327" lon="5.26485">
        <ele>584.3</ele>
        <time>2015-06-26T19:20:09Z</time>
      </trkpt>
      <trkpt lat="44.93278" lon="5.26491">
        <ele>584.2</ele>
        <time>2015-06-26T19:20:19Z</time>
      </trkpt>
      <trkpt lat="44.93285" lon="5.26487">
        <ele>584.4</ele>
        <time>2015-06-26T19:20:25Z</time>
      </trkpt>
      <trkpt lat="44.93293" lon="5.26481">
        <ele>584</ele>
        <time>2015-06-26T19:20:30Z</time>
      </trkpt>
      <trkpt lat="44.93298" lon="5.26471">
        <ele>584.4</ele>
        <time>2015-06-26T19:20:36Z</time>
      </trkpt>
      <trkpt lat="44.93303" lon="5.26461">
        <ele>585.1</ele>
        <time>2015-06-26T19:20:42Z</time>
      </trkpt>
      <trkpt lat="44.93303" lon="5.26459">
        <ele>584.9</ele>
        <time>2015-06-26T19:20:43Z</time>
      </trkpt>
      <trkpt lat="44.93307" lon="5.26437">
        <ele>585.1</ele>
        <time>2015-06-26T19:20:54Z</time>
      </trkpt>
      <trkpt lat="44.93309" lon="5.26425">
        <ele>584.9</ele>
        <time>2015-06-26T19:21:02Z</time>
      </trkpt>
      <trkpt lat="44.93306" lon="5.26416">
        <ele>585</ele>
        <time>2015-06-26T19:21:08Z</time>
      </trkpt>
      <trkpt lat="44.93304" lon="5.26403">
        <ele>584.3</ele>
        <time>2015-06-26T19:21:15Z</time>
      </trkpt>
      <trkpt lat="44.93302" lon="5.26392">
        <ele>584.6</ele>
        <time>2015-06-26T19:21:23Z</time>
      </trkpt>
      <trkpt lat="44.93301" lon="5.2638">
        <ele>584.9</ele>
        <time>2015-06-26T19:21:31Z</time>
      </trkpt>
      <trkpt lat="44.93303" lon="5.26368">
        <ele>584.6</ele>
        <time>2015-06-26T19:21:40Z</time>
      </trkpt>
      <trkpt lat="44.9331" lon="5.26361">
        <ele>584.7</ele>
        <time>2015-06-26T19:21:46Z</time>
      </trkpt>
      <trkpt lat="44.93311" lon="5.26361">
        <ele>584.9</ele>
        <time>2015-06-26T19:21:47Z</time>
      </trkpt>
      <trkpt lat="44.93326" lon="5.26359">
        <ele>585</ele>
        <time>2015-06-26T19:22:05Z</time>
      </trkpt>
      <trkpt lat="44.93334" lon="5.26362">
        <ele>584.7</ele>
        <time>2015-06-26T19:22:13Z</time>
      </trkpt>
      <trkpt lat="44.93342" lon="5.26366">
        <ele>585</ele>
        <time>2015-06-26T19:22:20Z</time>
      </trkpt>
      <trkpt lat="44.93348" lon="5.26374">
        <ele>584.7</ele>
        <time>2015-06-26T19:22:30Z</time>
      </trkpt>
      <trkpt lat="44.93351" lon="5.26384">
        <ele>585.3</ele>
        <time>2015-06-26T19:22:38Z</time>
      </trkpt>
      <trkpt lat="44.93356" lon="5.26393">
        <ele>584.6</ele>
        <time>2015-06-26T19:22:45Z</time>
      </trkpt>
      <trkpt lat="44.9336" lon="5.26403">
        <ele>584.8</ele>
        <time>2015-06-26T19:22:52Z</time>
      </trkpt>
      <trkpt lat="44.93361" lon="5.26405">
        <ele>584.9</ele>
        <time>2015-06-26T19:22:53Z</time>
      </trkpt>
      <trkpt lat="44.93375" lon="5.26414">
        <ele>584.9</ele>
        <time>2015-06-26T19:23:08Z</time>
      </trkpt>
      <trkpt lat="44.93383" lon="5.26414">
        <ele>584.6</ele>
        <time>2015-06-26T19:23:14Z</time>
      </trkpt>
      <trkpt lat="44.93391" lon="5.26411">
        <ele>585.1</ele>
        <time>2015-06-26T19:23:20Z</time>
      </trkpt>
      <trkpt lat="44.93398" lon="5.26405">
        <ele>585.2</ele>
        <time>2015-06-26T19:23:27Z</time>
      </trkpt>
      <trkpt lat="44.93402" lon="5.26396">
        <ele>584.7</ele>
        <time>2015-06-26T19:23:36Z</time>
      </trkpt>
      <trkpt lat="44.93407" lon="5.26388">
        <ele>584.8</ele>
        <time>2015-06-26T19:23:43Z</time>
      </trkpt>
      <trkpt lat="44.93412" lon="5.26377">
        <ele>584.5</ele>
        <time>2015-06-26T19:23:52Z</time>
      </trkpt>
      <trkpt lat="44.93418" lon="5.26367">
        <ele>585.5</ele>
        <time>2015-06-26T19:23:59Z</time>
      </trkpt>
      <trkpt lat="44.93419" lon="5.26366">
        <ele>585.3</ele>
        <time>2015-06-26T19:24:00Z</time>
      </trkpt>
      <trkpt lat="44.93426" lon="5.26346">
        <ele>584.8</ele>
        <time>2015-06-26T19:24:14Z</time>
      </trkpt>
      <trkpt lat="44.93427" lon="5.26334">
        <ele>584.7</ele>
        <time>2015-06-26T19:24:22Z</time>
      </trkpt>
      <trkpt lat="44.93425" lon="5.26322">
        <ele>584.6</ele>
        <time>2015-06-26T19:24:30Z</time>
      </trkpt>
      <trkpt lat="44.93424" lon="5.2631">
        <ele>584</ele>
        <time>2015-06-26T19:24:38Z</time>
      </trkpt>
      <trkpt lat="44.93428" lon="5.263">
        <ele>584.6</ele>
        <time>2015-06-26T19:24:46Z</time>
      </trkpt>
      <trkpt lat="44.93434" lon="5.2629">
        <ele>586.4</ele>
        <time>2015-06-26T19:25:21Z</time>
      </trkpt>
      <trkpt lat="44.93434" lon="5.2629">
        <ele>586.4</ele>
        <time>2015-06-26T19:25:22Z</time>
      </trkpt>
      <trkpt lat="44.93447" lon="5.26279">
        <ele>586.3</ele>
        <time>2015-06-26T19:26:12Z</time>
      </trkpt>
      <trkpt lat="44.93455" lon="5.26277">
        <ele>586.3</ele>
        <time>2015-06-26T19:26:21Z</time>
      </trkpt>
      <trkpt lat="44.93463" lon="5.26275">
        <ele>586.3</ele>
        <time>2015-06-26T19:26:29Z</time>
      </trkpt>
      <trkpt lat="44.93464" lon="5.26275">
        <ele>586.1</ele>
        <time>2015-06-26T19:26:30Z</time>
      </trkpt>
      <trkpt lat="44.9348" lon="5.26272">
        <ele>585.2</ele>
        <time>2015-06-26T19:26:46Z</time>
      </trkpt>
      <trkpt lat="44.93488" lon="5.26273">
        <ele>585.2</ele>
        <time>2015-06-26T19:26:56Z</time>
      </trkpt>
      <trkpt lat="44.93497" lon="5.26276">
        <ele>585.4</ele>
        <time>2015-06-26T19:27:05Z</time>
      </trkpt>
      <trkpt lat="44.93505" lon="5.26281">
        <ele>584.7</ele>
        <time>2015-06-26T19:27:15Z</time>
      </trkpt>
      <trkpt lat="44.93513" lon="5.26286">
        <ele>585.4</ele>
        <time>2015-06-26T19:27:24Z</time>
      </trkpt>
      <trkpt lat="44.93521" lon="5.26292">
        <ele>584.3</ele>
        <time>2015-06-26T19:27:34Z</time>
      </trkpt>
      <trkpt lat="44.93522" lon="5.26292">
        <ele>584.2</ele>
        <time>2015-06-26T19:27:35Z</time>
      </trkpt>
      <trkpt lat="44.93537" lon="5.26296">
        <ele>583.6</ele>
        <time>2015-06-26T19:27:47Z</time>
      </trkpt>
      <trkpt lat="44.93546" lon="5.26297">
        <ele>583.8</ele>
        <time>2015-06-26T19:27:54Z</time>
      </trkpt>
      <trkpt lat="44.93554" lon="5.26296">
        <ele>584.3</ele>
        <time>2015-06-26T19:28:00Z</time>
      </trkpt>
      <trkpt lat="44.93562" lon="5.2629">
        <ele>584.2</ele>
        <time>2015-06-26T19:28:08Z</time>
      </trkpt>
      <trkpt lat="44.93566" lon="5.26279">
        <ele>585</ele>
        <time>2015-06-26T19:28:17Z</time>
      </trkpt>
      <trkpt lat="44.93569" lon="5.26269">
        <ele>585.5</ele>
        <time>2015-06-26T19:28:25Z</time>
      </trkpt>
      <trkpt lat="44.93574" lon="5.26259">
        <ele>585.3</ele>
        <time>2015-06-26T19:28:34Z</time>
      </trkpt>
      <trkpt lat="44.93582" lon="5.26253">
        <ele>585.4</ele>
        <time>2015-06-26T19:28:41Z</time>
      </trkpt>
      <trkpt lat="44.93584" lon="5.26252">
        <ele>585.5</ele>
        <time>2015-06-26T19:28:42Z</time>
      </trkpt>
      <trkpt lat="44.93598" lon="5.26245">
        <ele>585.3</ele>
        <time>2015-06-26T19:28:54Z</time>
      </trkpt>
      <trkpt lat="44.93606" lon="5.26241">
        <ele>585.3</ele>
        <time>2015-06-26T19:29:01Z</time>
      </trkpt>
      <trkpt lat="44.93613" lon="5.26235">
        <ele>585.5</ele>
        <time>2015-06-26T19:29:08Z</time>
      </trkpt>
      <trkpt lat="44.9362" lon="5.2623">
        <ele>585.1</ele>
        <time>2015-06-26T19:29:16Z</time>
      </trkpt>
      <trkpt lat="44.93628" lon="5.26226">
        <ele>585.4</ele>
        <time>2015-06-26T19:29:24Z</time>
      </trkpt>
      <trkpt lat="44.93636" lon="5.26222">
        <ele>585.4</ele>
        <time>2015-06-26T19:29:33Z</time>
      </trkpt>
      <trkpt lat="44.93644" lon="5.2622">
        <ele>585.2</ele>
        <time>2015-06-26T19:29:39Z</time>
      </trkpt>
      <trkpt lat="44.93653" lon="5.2622">
        <ele>584.7</ele>
        <time>2015-06-26T19:29:48Z</time>
      </trkpt>
      <trkpt lat="44.93653" lon="5.26219">
        <ele>584.8</ele>
        <time>2015-06-26T19:29:49Z</time>
      </trkpt>
      <trkpt lat="44.93669" lon="5.2622">
        <ele>585.6</ele>
        <time>2015-06-26T19:30:03Z</time>
      </trkpt>
      <trkpt lat="44.93677" lon="5.26224">
        <ele>585.5</ele>
        <time>2015-06-26T19:30:10Z</time>
      </trkpt>
      <trkpt lat="44.93685" lon="5.26227">
        <ele>586</ele>
        <time>2015-06-26T19:30:17Z</time>
      </trkpt>
      <trkpt lat="44.93692" lon="5.26231">
        <ele>585.2</ele>
        <time>2015-06-26T19:30:25Z</time>
      </trkpt>
      <trkpt lat="44.937" lon="5.26236">
        <ele>585.1</ele>
        <time>2015-06-26T19:30:32Z</time>
      </trkpt>
      <trkpt lat="44.93707" lon="5.2624">
        <ele>585.8</ele>
        <time>2015-06-26T19:30:38Z</time>
      </trkpt>
      <trkpt lat="44.93715" lon="5.26245">
        <ele>585.5</ele>
        <time>2015-06-26T19:30:46Z</time>
      </trkpt>
      <trkpt lat="44.93723" lon="5.2625">
        <ele>585.2</ele>
        <time>2015-06-26T19:30:53Z</time>
      </trkpt>
      <trkpt lat="44.93724" lon="5.2625">
        <ele>585.3</ele>
        <time>2015-06-26T19:30:54Z</time>
      </trkpt>
      <trkpt lat="44.93739" lon="5.26259">
        <ele>584.7</ele>
        <time>2015-06-26T19:31:08Z</time>
      </trkpt>
      <trkpt lat="44.93747" lon="5.26263">
        <ele>585.1</ele>
        <time>2015-06-26T19:31:15Z</time>
      </trkpt>
      <trkpt lat="44.93754" lon="5.26268">
        <ele>585.5</ele>
        <time>2015-06-26T19:31:22Z</time>
      </trkpt>
      <trkpt lat="44.93762" lon="5.26272">
        <ele>585.3</ele>
        <time>2015-06-26T19:31:30Z</time>
      </trkpt>
      <trkpt lat="44.93769" lon="5.26278">
        <ele>584.8</ele>
        <time>2015-06-26T19:31:38Z</time>
      </trkpt>
      <trkpt lat="44.93778" lon="5.26276">
        <ele>584.9</ele>
        <time>2015-06-26T19:31:47Z</time>
      </trkpt>
      <trkpt lat="44.93784" lon="5.26269">
        <ele>584.7</ele>
        <time>2015-06-26T19:31:53Z</time>
      </trkpt>
      <trkpt lat="44.93789" lon="5.26259">
        <ele>584.3</ele>
        <time>2015-06-26T19:31:58Z</time>
      </trkpt>
      <trkpt lat="44.93789" lon="5.26257">
        <ele>584.3</ele>
        <time>2015-06-26T19:31:59Z</time>
      </trkpt>
      <trkpt lat="44.93781" lon="5.26239">
        <ele>584.8</ele>
        <time>2015-06-26T19:32:14Z</time>
      </trkpt>
      <trkpt lat="44.93773" lon="5.26233">
        <ele>584.3</ele>
        <time>2015-06-26T19:32:20Z</time>
      </trkpt>
      <trkpt lat="44.93767" lon="5.26227">
        <ele>584.2</ele>
        <time>2015-06-26T19:32:27Z</time>
      </trkpt>
      <trkpt lat="44.93761" lon="5.26217">
        <ele>584.2</ele>
        <time>2015-06-26T19:32:34Z</time>
      </trkpt>
      <trkpt lat="44.93754" lon="5.26209">
        <ele>584</ele>
        <time>2015-06-26T19:32:41Z</time>
      </trkpt>
      <trkpt lat="44.9375" lon="5.26198">
        <ele>584.4</ele>
        <time>2015-06-26T19:32:50Z</time>
      </trkpt>
      <trkpt lat="44.93745" lon="5.2619">
        <ele>584.8</ele>
        <time>2015-06-26T19:32:57Z</time>
      </trkpt>
      <trkpt lat="44.93739" lon="5.26181">
        <ele>583.8</ele>
        <time>2015-06-26T19:33:04Z</time>
      </trkpt>
      <trkpt lat="44.93738" lon="5.2618">
        <ele>583.6</ele>
        <time>2015-06-26T19:33:05Z</time>
      </trkpt>
      <trkpt lat="44.93726" lon="5.26166">
        <ele>584.4</ele>
        <time>2015-06-26T19:33:15Z</time>
      </trkpt>
      <trkpt lat="44.93719" lon="5.26159">
        <ele>584.7</ele>
        <time>2015-06-26T19:33:23Z</time>
      </trkpt>
      <trkpt lat="44.93711" lon="5.26154">
        <ele>584.1</ele>
        <time>2015-06-26T19:33:30Z</time>
      </trkpt>
      <trkpt lat="44.93704" lon="5.26149">
        <ele>584</ele>
        <time>2015-06-26T19:33:37Z</time>
      </trkpt>
      <trkpt lat="44.93696" lon="5.26145">
        <ele>584.6</ele>
        <time>2015-06-26T19:33:43Z</time>
      </trkpt>
      <trkpt lat="44.93688" lon="5.2614">
        <ele>584.8</ele>
        <time>2015-06-26T19:33:51Z</time>
      </trkpt>
      <trkpt lat="44.93681" lon="5.26133">
        <ele>584.3</ele>
        <time>2015-06-26T19:33:59Z</time>
      </trkpt>
      <trkpt lat="44.93673" lon="5.26128">
        <ele>584.4</ele>
        <time>2015-06-26T19:34:06Z</time>
      </trkpt>
      <trkpt lat="44.93672" lon="5.26128">
        <ele>584.6</ele>
        <time>2015-06-26T19:34:07Z</time>
      </trkpt>
      <trkpt lat="44.93659" lon="5.26114">
        <ele>584.6</ele>
        <time>2015-06-26T19:34:21Z</time>
      </trkpt>
      <trkpt lat="44.93653" lon="5.26106">
        <ele>584.4</ele>
        <time>2015-06-26T19:34:27Z</time>
      </trkpt>
      <trkpt lat="44.93646" lon="5.26101">
        <ele>584.7</ele>
        <time>2015-06-26T19:34:34Z</time>
      </trkpt>
      <trkpt lat="44.93639" lon="5.26094">
        <ele>583.9</ele>
        <time>2015-06-26T19:34:40Z</time>
      </trkpt>
      <trkpt lat="44.93632" lon="5.26089">
        <ele>584</ele>
        <time>2015-06-26T19:34:47Z</time>
      </trkpt>
      <trkpt lat="44.93624" lon="5.26083">
        <ele>584</ele>
        <time>2015-06-26T19:34:55Z</time>
      </trkpt>
      <trkpt lat="44.93616" lon="5.26079">
        <ele>582.8</ele>
        <time>2015-06-26T19:35:03Z</time>
      </trkpt>
      <trkpt lat="44.93608" lon="5.26074">
        <ele>583.8</ele>
        <time>2015-06-26T19:35:09Z</time>
      </trkpt>
      <trkpt lat="44.93607" lon="5.26072">
        <ele>583.8</ele>
        <time>2015-06-26T19:35:10Z</time>
      </trkpt>
      <trkpt lat="44.93597" lon="5.26056">
        <ele>583.4</ele>
        <time>2015-06-26T19:35:22Z</time>
      </trkpt>
      <trkpt lat="44.93592" lon="5.26047">
        <ele>583.6</ele>
        <time>2015-06-26T19:35:30Z</time>
      </trkpt>
      <trkpt lat="44.93588" lon="5.26036">
        <ele>584.2</ele>
        <time>2015-06-26T19:35:39Z</time>
      </trkpt>
      <trkpt lat="44.93585" lon="5.26025">
        <ele>584.1</ele>
        <time>2015-06-26T19:35:46Z</time>
      </trkpt>
      <trkpt lat="44.93581" lon="5.26015">
        <ele>583.3</ele>
        <time>2015-06-26T19:35:52Z</time>
      </trkpt>
      <trkpt lat="44.93579" lon="5.26003">
        <ele>583.4</ele>
        <time>2015-06-26T19:35:56Z</time>
      </trkpt>
      <trkpt lat="44.93574" lon="5.25993">
        <ele>583.7</ele>
        <time>2015-06-26T19:36:05Z</time>
      </trkpt>
      <trkpt lat="44.93572" lon="5.25982">
        <ele>584.2</ele>
        <time>2015-06-26T19:36:12Z</time>
      </trkpt>
      <trkpt lat="44.93572" lon="5.2598">
        <ele>584.1</ele>
        <time>2015-06-26T19:36:13Z</time>
      </trkpt>
      <trkpt lat="44.93568" lon="5.2596">
        <ele>584.6</ele>
        <time>2015-06-26T19:36:26Z</time>
      </trkpt>
      <trkpt lat="44.93568" lon="5.25948">
        <ele>583.8</ele>
        <time>2015-06-26T19:36:33Z</time>
      </trkpt>
      <trkpt lat="44.93569" lon="5.25936">
        <ele>583.2</ele>
        <time>2015-06-26T19:36:41Z</time>
      </trkpt>
      <trkpt lat="44.9357" lon="5.25923">
        <ele>584.6</ele>
        <time>2015-06-26T19:36:49Z</time>
      </trkpt>
      <trkpt lat="44.93573" lon="5.25912">
        <ele>584.4</ele>
        <time>2015-06-26T19:36:56Z</time>
      </trkpt>
      <trkpt lat="44.93575" lon="5.25901">
        <ele>584.3</ele>
        <time>2015-06-26T19:37:03Z</time>
      </trkpt>
      <trkpt lat="44.93579" lon="5.25889">
        <ele>583.8</ele>
        <time>2015-06-26T19:37:11Z</time>
      </trkpt>
      <trkpt lat="44.93582" lon="5.25878">
        <ele>583.6</ele>
        <time>2015-06-26T19:37:18Z</time>
      </trkpt>
      <trkpt lat="44.93582" lon="5.25877">
        <ele>583.5</ele>
        <time>2015-06-26T19:37:19Z</time>
      </trkpt>
      <trkpt lat="44.9359" lon="5.25859">
        <ele>585.8</ele>
        <time>2015-06-26T19:37:36Z</time>
      </trkpt>
      <trkpt lat="44.93592" lon="5.25848">
        <ele>587</ele>
        <time>2015-06-26T19:37:47Z</time>
      </trkpt>
      <trkpt lat="44.93588" lon="5.25837">
        <ele>588.8</ele>
        <time>2015-06-26T19:38:08Z</time>
      </trkpt>
      <trkpt lat="44.93588" lon="5.25825">
        <ele>587.6</ele>
        <time>2015-06-26T19:38:24Z</time>
      </trkpt>
      <trkpt lat="44.93588" lon="5.25823">
        <ele>587.5</ele>
        <time>2015-06-26T19:38:25Z</time>
      </trkpt>
      <trkpt lat="44.93585" lon="5.25801">
        <ele>586.2</ele>
        <time>2015-06-26T19:39:14Z</time>
      </trkpt>
      <trkpt lat="44.93583" lon="5.2579">
        <ele>584.9</ele>
        <time>2015-06-26T19:39:28Z</time>
      </trkpt>
      <trkpt lat="44.93582" lon="5.25788">
        <ele>584.8</ele>
        <time>2015-06-26T19:39:29Z</time>
      </trkpt>
      <trkpt lat="44.93575" lon="5.25769">
        <ele>583.6</ele>
        <time>2015-06-26T19:39:52Z</time>
      </trkpt>
      <trkpt lat="44.93579" lon="5.25759">
        <ele>583.6</ele>
        <time>2015-06-26T19:40:51Z</time>
      </trkpt>
      <trkpt lat="44.93579" lon="5.25756">
        <ele>583.4</ele>
        <time>2015-06-26T19:40:52Z</time>
      </trkpt>
      <trkpt lat="44.93578" lon="5.25736">
        <ele>582.6</ele>
        <time>2015-06-26T19:41:04Z</time>
      </trkpt>
      <trkpt lat="44.93572" lon="5.25727">
        <ele>581.9</ele>
        <time>2015-06-26T19:41:25Z</time>
      </trkpt>
      <trkpt lat="44.93568" lon="5.25716">
        <ele>583</ele>
        <time>2015-06-26T19:41:58Z</time>
      </trkpt>
      <trkpt lat="44.93568" lon="5.25716">
        <ele>583</ele>
        <time>2015-06-26T19:41:59Z</time>
      </trkpt>
      <trkpt lat="44.93557" lon="5.25705">
        <ele>582</ele>
        <time>2015-06-26T19:42:48Z</time>
      </trkpt>
      <trkpt lat="44.93548" lon="5.25706">
        <ele>582.4</ele>
        <time>2015-06-26T19:42:58Z</time>
      </trkpt>
      <trkpt lat="44.93543" lon="5.25716">
        <ele>582.9</ele>
        <time>2015-06-26T19:43:11Z</time>
      </trkpt>
      <trkpt lat="44.93543" lon="5.25717">
        <ele>583.1</ele>
        <time>2015-06-26T19:43:12Z</time>
      </trkpt>
      <trkpt lat="44.93557" lon="5.25705">
        <ele>583.6</ele>
        <time>2015-06-26T19:44:20Z</time>
      </trkpt>
      <trkpt lat="44.93557" lon="5.25704">
        <ele>583.9</ele>
        <time>2015-06-26T19:44:21Z</time>
      </trkpt>
      <trkpt lat="44.93565" lon="5.25702">
        <ele>583.2</ele>
        <time>2015-06-26T19:46:03Z</time>
      </trkpt>
      <trkpt lat="44.93566" lon="5.25725">
        <ele>582.5</ele>
        <time>2015-06-26T19:47:43Z</time>
      </trkpt>
      <trkpt lat="44.93567" lon="5.25726">
        <ele>582.3</ele>
        <time>2015-06-26T19:47:44Z</time>
      </trkpt>
      <trkpt lat="44.9358" lon="5.2574">
        <ele>582.5</ele>
        <time>2015-06-26T19:48:09Z</time>
      </trkpt>
      <trkpt lat="44.9358" lon="5.25752">
        <ele>582.9</ele>
        <time>2015-06-26T19:48:26Z</time>
      </trkpt>
      <trkpt lat="44.93582" lon="5.25764">
        <ele>583</ele>
        <time>2015-06-26T19:48:37Z</time>
      </trkpt>
      <trkpt lat="44.93584" lon="5.25776">
        <ele>582.6</ele>
        <time>2015-06-26T19:48:49Z</time>
      </trkpt>
      <trkpt lat="44.93584" lon="5.25777">
        <ele>582.7</ele>
        <time>2015-06-26T19:48:50Z</time>
      </trkpt>
      <trkpt lat="44.93585" lon="5.25798">
        <ele>584.4</ele>
        <time>2015-06-26T19:49:06Z</time>
      </trkpt>
      <trkpt lat="44.93586" lon="5.2581">
        <ele>584.9</ele>
        <time>2015-06-26T19:49:14Z</time>
      </trkpt>
      <trkpt lat="44.93587" lon="5.25822">
        <ele>585.7</ele>
        <time>2015-06-26T19:49:23Z</time>
      </trkpt>
      <trkpt lat="44.93587" lon="5.25834">
        <ele>587.1</ele>
        <time>2015-06-26T19:49:35Z</time>
      </trkpt>
      <trkpt lat="44.93585" lon="5.25846">
        <ele>586.3</ele>
        <time>2015-06-26T19:49:43Z</time>
      </trkpt>
      <trkpt lat="44.93583" lon="5.25857">
        <ele>584.9</ele>
        <time>2015-06-26T19:49:52Z</time>
      </trkpt>
      <trkpt lat="44.93583" lon="5.25858">
        <ele>584.8</ele>
        <time>2015-06-26T19:49:53Z</time>
      </trkpt>
      <trkpt lat="44.93577" lon="5.25879">
        <ele>583.3</ele>
        <time>2015-06-26T19:50:15Z</time>
      </trkpt>
      <trkpt lat="44.93572" lon="5.2589">
        <ele>582.8</ele>
        <time>2015-06-26T19:50:32Z</time>
      </trkpt>
      <trkpt lat="44.93569" lon="5.25902">
        <ele>582</ele>
        <time>2015-06-26T19:50:41Z</time>
      </trkpt>
      <trkpt lat="44.93567" lon="5.25913">
        <ele>582.7</ele>
        <time>2015-06-26T19:50:48Z</time>
      </trkpt>
      <trkpt lat="44.93566" lon="5.25925">
        <ele>582.7</ele>
        <time>2015-06-26T19:50:56Z</time>
      </trkpt>
      <trkpt lat="44.93566" lon="5.25927">
        <ele>582.5</ele>
        <time>2015-06-26T19:50:57Z</time>
      </trkpt>
      <trkpt lat="44.93565" lon="5.25949">
        <ele>582.4</ele>
        <time>2015-06-26T19:51:13Z</time>
      </trkpt>
      <trkpt lat="44.93564" lon="5.25961">
        <ele>582.2</ele>
        <time>2015-06-26T19:51:22Z</time>
      </trkpt>
      <trkpt lat="44.93565" lon="5.25972">
        <ele>581.8</ele>
        <time>2015-06-26T19:51:29Z</time>
      </trkpt>
      <trkpt lat="44.93568" lon="5.25983">
        <ele>582.2</ele>
        <time>2015-06-26T19:51:38Z</time>
      </trkpt>
      <trkpt lat="44.9357" lon="5.25995">
        <ele>582.2</ele>
        <time>2015-06-26T19:51:46Z</time>
      </trkpt>
      <trkpt lat="44.93572" lon="5.26005">
        <ele>582</ele>
        <time>2015-06-26T19:51:54Z</time>
      </trkpt>
      <trkpt lat="44.93577" lon="5.26016">
        <ele>582.1</ele>
        <time>2015-06-26T19:52:03Z</time>
      </trkpt>
      <trkpt lat="44.93578" lon="5.26017">
        <ele>582.3</ele>
        <time>2015-06-26T19:52:04Z</time>
      </trkpt>
      <trkpt lat="44.93585" lon="5.26037">
        <ele>583</ele>
        <time>2015-06-26T19:52:20Z</time>
      </trkpt>
      <trkpt lat="44.9359" lon="5.26047">
        <ele>582.3</ele>
        <time>2015-06-26T19:52:27Z</time>
      </trkpt>
      <trkpt lat="44.93595" lon="5.26056">
        <ele>581.5</ele>
        <time>2015-06-26T19:52:34Z</time>
      </trkpt>
      <trkpt lat="44.936" lon="5.26065">
        <ele>581.6</ele>
        <time>2015-06-26T19:52:41Z</time>
      </trkpt>
      <trkpt lat="44.93605" lon="5.26073">
        <ele>580.9</ele>
        <time>2015-06-26T19:52:49Z</time>
      </trkpt>
      <trkpt lat="44.9361" lon="5.26083">
        <ele>581.6</ele>
        <time>2015-06-26T19:52:56Z</time>
      </trkpt>
      <trkpt lat="44.93617" lon="5.26091">
        <ele>581.2</ele>
        <time>2015-06-26T19:53:03Z</time>
      </trkpt>
      <trkpt lat="44.93626" lon="5.26094">
        <ele>582.1</ele>
        <time>2015-06-26T19:53:10Z</time>
      </trkpt>
      <trkpt lat="44.93627" lon="5.26094">
        <ele>582.1</ele>
        <time>2015-06-26T19:53:11Z</time>
      </trkpt>
      <trkpt lat="44.93641" lon="5.26105">
        <ele>582.5</ele>
        <time>2015-06-26T19:53:23Z</time>
      </trkpt>
      <trkpt lat="44.93648" lon="5.26111">
        <ele>582.1</ele>
        <time>2015-06-26T19:53:30Z</time>
      </trkpt>
      <trkpt lat="44.93655" lon="5.26117">
        <ele>582.3</ele>
        <time>2015-06-26T19:53:39Z</time>
      </trkpt>
      <trkpt lat="44.93662" lon="5.26122">
        <ele>581.9</ele>
        <time>2015-06-26T19:53:47Z</time>
      </trkpt>
      <trkpt lat="44.93669" lon="5.26129">
        <ele>581.9</ele>
        <time>2015-06-26T19:53:55Z</time>
      </trkpt>
      <trkpt lat="44.93676" lon="5.26135">
        <ele>582.6</ele>
        <time>2015-06-26T19:54:02Z</time>
      </trkpt>
      <trkpt lat="44.93683" lon="5.26142">
        <ele>582.5</ele>
        <time>2015-06-26T19:54:08Z</time>
      </trkpt>
      <trkpt lat="44.9369" lon="5.26146">
        <ele>582.7</ele>
        <time>2015-06-26T19:54:15Z</time>
      </trkpt>
      <trkpt lat="44.93691" lon="5.26147">
        <ele>583.1</ele>
        <time>2015-06-26T19:54:16Z</time>
      </trkpt>
      <trkpt lat="44.93704" lon="5.26161">
        <ele>582.4</ele>
        <time>2015-06-26T19:54:30Z</time>
      </trkpt>
      <trkpt lat="44.93712" lon="5.26167">
        <ele>582.8</ele>
        <time>2015-06-26T19:54:40Z</time>
      </trkpt>
      <trkpt lat="44.9372" lon="5.26172">
        <ele>582.3</ele>
        <time>2015-06-26T19:54:48Z</time>
      </trkpt>
      <trkpt lat="44.93727" lon="5.26179">
        <ele>583</ele>
        <time>2015-06-26T19:54:55Z</time>
      </trkpt>
      <trkpt lat="44.93734" lon="5.26186">
        <ele>583.3</ele>
        <time>2015-06-26T19:55:03Z</time>
      </trkpt>
      <trkpt lat="44.9374" lon="5.26195">
        <ele>583</ele>
        <time>2015-06-26T19:55:11Z</time>
      </trkpt>
      <trkpt lat="44.93745" lon="5.26204">
        <ele>583.9</ele>
        <time>2015-06-26T19:55:19Z</time>
      </trkpt>
      <trkpt lat="44.93746" lon="5.26205">
        <ele>583.6</ele>
        <time>2015-06-26T19:55:20Z</time>
      </trkpt>
      <trkpt lat="44.93758" lon="5.26221">
        <ele>583.1</ele>
        <time>2015-06-26T19:55:34Z</time>
      </trkpt>
      <trkpt lat="44.93763" lon="5.26229">
        <ele>583.5</ele>
        <time>2015-06-26T19:55:43Z</time>
      </trkpt>
      <trkpt lat="44.9377" lon="5.26237">
        <ele>583.7</ele>
        <time>2015-06-26T19:55:51Z</time>
      </trkpt>
      <trkpt lat="44.93776" lon="5.26245">
        <ele>583.9</ele>
        <time>2015-06-26T19:55:59Z</time>
      </trkpt>
      <trkpt lat="44.93782" lon="5.26254">
        <ele>582.9</ele>
        <time>2015-06-26T19:56:05Z</time>
      </trkpt>
      <trkpt lat="44.93785" lon="5.26266">
        <ele>583.3</ele>
        <time>2015-06-26T19:56:15Z</time>
      </trkpt>
      <trkpt lat="44.93779" lon="5.26274">
        <ele>583.7</ele>
        <time>2015-06-26T19:56:28Z</time>
      </trkpt>
      <trkpt lat="44.93777" lon="5.26273">
        <ele>583.4</ele>
        <time>2015-06-26T19:56:29Z</time>
      </trkpt>
      <trkpt lat="44.93764" lon="5.26262">
        <ele>583.6</ele>
        <time>2015-06-26T19:56:42Z</time>
      </trkpt>
      <trkpt lat="44.93756" lon="5.26259">
        <ele>583.4</ele>
        <time>2015-06-26T19:56:49Z</time>
      </trkpt>
      <trkpt lat="44.93747" lon="5.26259">
        <ele>583.8</ele>
        <time>2015-06-26T19:56:56Z</time>
      </trkpt>
      <trkpt lat="44.9374" lon="5.26256">
        <ele>583.1</ele>
        <time>2015-06-26T19:57:02Z</time>
      </trkpt>
      <trkpt lat="44.93733" lon="5.2625">
        <ele>583.7</ele>
        <time>2015-06-26T19:57:10Z</time>
      </trkpt>
      <trkpt lat="44.93724" lon="5.26248">
        <ele>583.6</ele>
        <time>2015-06-26T19:57:18Z</time>
      </trkpt>
      <trkpt lat="44.93717" lon="5.26243">
        <ele>583.9</ele>
        <time>2015-06-26T19:57:25Z</time>
      </trkpt>
      <trkpt lat="44.93709" lon="5.26239">
        <ele>583.9</ele>
        <time>2015-06-26T19:57:33Z</time>
      </trkpt>
      <trkpt lat="44.93708" lon="5.26238">
        <ele>584</ele>
        <time>2015-06-26T19:57:34Z</time>
      </trkpt>
      <trkpt lat="44.93694" lon="5.2623">
        <ele>584</ele>
        <time>2015-06-26T19:57:49Z</time>
      </trkpt>
      <trkpt lat="44.93686" lon="5.26226">
        <ele>583.3</ele>
        <time>2015-06-26T19:57:56Z</time>
      </trkpt>
      <trkpt lat="44.93679" lon="5.26222">
        <ele>584.3</ele>
        <time>2015-06-26T19:58:04Z</time>
      </trkpt>
      <trkpt lat="44.93671" lon="5.26219">
        <ele>584</ele>
        <time>2015-06-26T19:58:11Z</time>
      </trkpt>
      <trkpt lat="44.93662" lon="5.26219">
        <ele>584</ele>
        <time>2015-06-26T19:58:19Z</time>
      </trkpt>
      <trkpt lat="44.93654" lon="5.26218">
        <ele>583.6</ele>
        <time>2015-06-26T19:58:25Z</time>
      </trkpt>
      <trkpt lat="44.93646" lon="5.26218">
        <ele>584.3</ele>
        <time>2015-06-26T19:58:32Z</time>
      </trkpt>
      <trkpt lat="44.93637" lon="5.26218">
        <ele>583.7</ele>
        <time>2015-06-26T19:58:40Z</time>
      </trkpt>
      <trkpt lat="44.93636" lon="5.26218">
        <ele>583.8</ele>
        <time>2015-06-26T19:58:41Z</time>
      </trkpt>
      <trkpt lat="44.93621" lon="5.26225">
        <ele>583.7</ele>
        <time>2015-06-26T19:58:56Z</time>
      </trkpt>
      <trkpt lat="44.93614" lon="5.2623">
        <ele>583.8</ele>
        <time>2015-06-26T19:59:04Z</time>
      </trkpt>
      <trkpt lat="44.93607" lon="5.26238">
        <ele>583.6</ele>
        <time>2015-06-26T19:59:12Z</time>
      </trkpt>
      <trkpt lat="44.93599" lon="5.26241">
        <ele>584</ele>
        <time>2015-06-26T19:59:18Z</time>
      </trkpt>
      <trkpt lat="44.93591" lon="5.26247">
        <ele>584.2</ele>
        <time>2015-06-26T19:59:25Z</time>
      </trkpt>
      <trkpt lat="44.93584" lon="5.26252">
        <ele>584</ele>
        <time>2015-06-26T19:59:33Z</time>
      </trkpt>
      <trkpt lat="44.93576" lon="5.26258">
        <ele>584</ele>
        <time>2015-06-26T19:59:40Z</time>
      </trkpt>
      <trkpt lat="44.93568" lon="5.26262">
        <ele>584.3</ele>
        <time>2015-06-26T19:59:48Z</time>
      </trkpt>
      <trkpt lat="44.93567" lon="5.26263">
        <ele>584.3</ele>
        <time>2015-06-26T19:59:49Z</time>
      </trkpt>
      <trkpt lat="44.93558" lon="5.26283">
        <ele>583.5</ele>
        <time>2015-06-26T20:00:04Z</time>
      </trkpt>
      <trkpt lat="44.93552" lon="5.26291">
        <ele>584.1</ele>
        <time>2015-06-26T20:00:10Z</time>
      </trkpt>
      <trkpt lat="44.93544" lon="5.26295">
        <ele>583.9</ele>
        <time>2015-06-26T20:00:18Z</time>
      </trkpt>
      <trkpt lat="44.93535" lon="5.26294">
        <ele>584.1</ele>
        <time>2015-06-26T20:00:31Z</time>
      </trkpt>
      <trkpt lat="44.93527" lon="5.26291">
        <ele>583.7</ele>
        <time>2015-06-26T20:00:40Z</time>
      </trkpt>
      <trkpt lat="44.9352" lon="5.26286">
        <ele>583.4</ele>
        <time>2015-06-26T20:00:48Z</time>
      </trkpt>
      <trkpt lat="44.93513" lon="5.2628">
        <ele>584</ele>
        <time>2015-06-26T20:00:54Z</time>
      </trkpt>
      <trkpt lat="44.93512" lon="5.26279">
        <ele>584.2</ele>
        <time>2015-06-26T20:00:55Z</time>
      </trkpt>
      <trkpt lat="44.93496" lon="5.26274">
        <ele>583.8</ele>
        <time>2015-06-26T20:01:08Z</time>
      </trkpt>
      <trkpt lat="44.93488" lon="5.26271">
        <ele>583.6</ele>
        <time>2015-06-26T20:01:16Z</time>
      </trkpt>
      <trkpt lat="44.9348" lon="5.26272">
        <ele>583.1</ele>
        <time>2015-06-26T20:01:23Z</time>
      </trkpt>
      <trkpt lat="44.93472" lon="5.26273">
        <ele>583.3</ele>
        <time>2015-06-26T20:01:30Z</time>
      </trkpt>
      <trkpt lat="44.93463" lon="5.26274">
        <ele>584</ele>
        <time>2015-06-26T20:01:36Z</time>
      </trkpt>
      <trkpt lat="44.93455" lon="5.26276">
        <ele>583.8</ele>
        <time>2015-06-26T20:01:44Z</time>
      </trkpt>
      <trkpt lat="44.93447" lon="5.26279">
        <ele>583.3</ele>
        <time>2015-06-26T20:01:51Z</time>
      </trkpt>
      <trkpt lat="44.9344" lon="5.26283">
        <ele>583.4</ele>
        <time>2015-06-26T20:01:58Z</time>
      </trkpt>
      <trkpt lat="44.93439" lon="5.26284">
        <ele>583.6</ele>
        <time>2015-06-26T20:01:59Z</time>
      </trkpt>
      <trkpt lat="44.93427" lon="5.26297">
        <ele>583.7</ele>
        <time>2015-06-26T20:02:14Z</time>
      </trkpt>
      <trkpt lat="44.93422" lon="5.26307">
        <ele>583.6</ele>
        <time>2015-06-26T20:02:22Z</time>
      </trkpt>
      <trkpt lat="44.93419" lon="5.26319">
        <ele>583.4</ele>
        <time>2015-06-26T20:02:30Z</time>
      </trkpt>
      <trkpt lat="44.93419" lon="5.26331">
        <ele>583.7</ele>
        <time>2015-06-26T20:02:38Z</time>
      </trkpt>
      <trkpt lat="44.93418" lon="5.26342">
        <ele>583.6</ele>
        <time>2015-06-26T20:02:46Z</time>
      </trkpt>
      <trkpt lat="44.93418" lon="5.26354">
        <ele>584</ele>
        <time>2015-06-26T20:02:52Z</time>
      </trkpt>
      <trkpt lat="44.93415" lon="5.26365">
        <ele>583.5</ele>
        <time>2015-06-26T20:03:00Z</time>
      </trkpt>
      <trkpt lat="44.93414" lon="5.26367">
        <ele>583.9</ele>
        <time>2015-06-26T20:03:01Z</time>
      </trkpt>
      <trkpt lat="44.93404" lon="5.26383">
        <ele>584.1</ele>
        <time>2015-06-26T20:03:14Z</time>
      </trkpt>
      <trkpt lat="44.93399" lon="5.26392">
        <ele>584.1</ele>
        <time>2015-06-26T20:03:22Z</time>
      </trkpt>
      <trkpt lat="44.93393" lon="5.26401">
        <ele>583.4</ele>
        <time>2015-06-26T20:03:29Z</time>
      </trkpt>
      <trkpt lat="44.93386" lon="5.26407">
        <ele>583.4</ele>
        <time>2015-06-26T20:03:36Z</time>
      </trkpt>
      <trkpt lat="44.93379" lon="5.2641">
        <ele>583.7</ele>
        <time>2015-06-26T20:03:43Z</time>
      </trkpt>
      <trkpt lat="44.9337" lon="5.26407">
        <ele>584.1</ele>
        <time>2015-06-26T20:03:50Z</time>
      </trkpt>
      <trkpt lat="44.93363" lon="5.26402">
        <ele>583.1</ele>
        <time>2015-06-26T20:03:58Z</time>
      </trkpt>
      <trkpt lat="44.93357" lon="5.26393">
        <ele>583.6</ele>
        <time>2015-06-26T20:04:06Z</time>
      </trkpt>
      <trkpt lat="44.93357" lon="5.26392">
        <ele>583.7</ele>
        <time>2015-06-26T20:04:07Z</time>
      </trkpt>
      <trkpt lat="44.93347" lon="5.26375">
        <ele>583.8</ele>
        <time>2015-06-26T20:04:21Z</time>
      </trkpt>
      <trkpt lat="44.93342" lon="5.26365">
        <ele>584.5</ele>
        <time>2015-06-26T20:04:30Z</time>
      </trkpt>
      <trkpt lat="44.93335" lon="5.26359">
        <ele>583.7</ele>
        <time>2015-06-26T20:04:37Z</time>
      </trkpt>
      <trkpt lat="44.93327" lon="5.26354">
        <ele>583.9</ele>
        <time>2015-06-26T20:04:44Z</time>
      </trkpt>
      <trkpt lat="44.93319" lon="5.26355">
        <ele>583.8</ele>
        <time>2015-06-26T20:04:51Z</time>
      </trkpt>
      <trkpt lat="44.9331" lon="5.26355">
        <ele>583.7</ele>
        <time>2015-06-26T20:04:59Z</time>
      </trkpt>
      <trkpt lat="44.93303" lon="5.26363">
        <ele>583.8</ele>
        <time>2015-06-26T20:05:06Z</time>
      </trkpt>
      <trkpt lat="44.93299" lon="5.26373">
        <ele>583.6</ele>
        <time>2015-06-26T20:05:12Z</time>
      </trkpt>
      <trkpt lat="44.93299" lon="5.26374">
        <ele>583.4</ele>
        <time>2015-06-26T20:05:13Z</time>
      </trkpt>
      <trkpt lat="44.93296" lon="5.26396">
        <ele>583.2</ele>
        <time>2015-06-26T20:05:28Z</time>
      </trkpt>
      <trkpt lat="44.93299" lon="5.26408">
        <ele>583</ele>
        <time>2015-06-26T20:05:34Z</time>
      </trkpt>
      <trkpt lat="44.93299" lon="5.2642">
        <ele>583.3</ele>
        <time>2015-06-26T20:05:42Z</time>
      </trkpt>
      <trkpt lat="44.933" lon="5.26432">
        <ele>583.7</ele>
        <time>2015-06-26T20:05:49Z</time>
      </trkpt>
      <trkpt lat="44.933" lon="5.26444">
        <ele>583.5</ele>
        <time>2015-06-26T20:05:57Z</time>
      </trkpt>
      <trkpt lat="44.93297" lon="5.26456">
        <ele>583.1</ele>
        <time>2015-06-26T20:06:06Z</time>
      </trkpt>
      <trkpt lat="44.93292" lon="5.26465">
        <ele>583.1</ele>
        <time>2015-06-26T20:06:13Z</time>
      </trkpt>
      <trkpt lat="44.93292" lon="5.26466">
        <ele>583.2</ele>
        <time>2015-06-26T20:06:14Z</time>
      </trkpt>
      <trkpt lat="44.93276" lon="5.26473">
        <ele>582.7</ele>
        <time>2015-06-26T20:06:36Z</time>
      </trkpt>
      <trkpt lat="44.93269" lon="5.26467">
        <ele>581.6</ele>
        <time>2015-06-26T20:07:01Z</time>
      </trkpt>
      <trkpt lat="44.93262" lon="5.26461">
        <ele>581.8</ele>
        <time>2015-06-26T20:07:08Z</time>
      </trkpt>
      <trkpt lat="44.93255" lon="5.26455">
        <ele>582.1</ele>
        <time>2015-06-26T20:07:15Z</time>
      </trkpt>
      <trkpt lat="44.93254" lon="5.26454">
        <ele>582</ele>
        <time>2015-06-26T20:07:16Z</time>
      </trkpt>
      <trkpt lat="44.9324" lon="5.26443">
        <ele>582.7</ele>
        <time>2015-06-26T20:07:32Z</time>
      </trkpt>
      <trkpt lat="44.93232" lon="5.26441">
        <ele>583.9</ele>
        <time>2015-06-26T20:07:39Z</time>
      </trkpt>
      <trkpt lat="44.93223" lon="5.26442">
        <ele>583.5</ele>
        <time>2015-06-26T20:07:46Z</time>
      </trkpt>
      <trkpt lat="44.93216" lon="5.26445">
        <ele>583.6</ele>
        <time>2015-06-26T20:07:53Z</time>
      </trkpt>
      <trkpt lat="44.93209" lon="5.2645">
        <ele>584.2</ele>
        <time>2015-06-26T20:07:59Z</time>
      </trkpt>
      <trkpt lat="44.93201" lon="5.26455">
        <ele>584.7</ele>
        <time>2015-06-26T20:08:06Z</time>
      </trkpt>
      <trkpt lat="44.93196" lon="5.26464">
        <ele>585.2</ele>
        <time>2015-06-26T20:08:14Z</time>
      </trkpt>
      <trkpt lat="44.93189" lon="5.26471">
        <ele>585.1</ele>
        <time>2015-06-26T20:08:23Z</time>
      </trkpt>
      <trkpt lat="44.93188" lon="5.26472">
        <ele>585</ele>
        <time>2015-06-26T20:08:24Z</time>
      </trkpt>
      <trkpt lat="44.93175" lon="5.26484">
        <ele>584.9</ele>
        <time>2015-06-26T20:08:38Z</time>
      </trkpt>
      <trkpt lat="44.93169" lon="5.26493">
        <ele>585.2</ele>
        <time>2015-06-26T20:08:46Z</time>
      </trkpt>
      <trkpt lat="44.93165" lon="5.26502">
        <ele>585.8</ele>
        <time>2015-06-26T20:08:53Z</time>
      </trkpt>
      <trkpt lat="44.93161" lon="5.26512">
        <ele>585</ele>
        <time>2015-06-26T20:09:07Z</time>
      </trkpt>
      <trkpt lat="44.93157" lon="5.26523">
        <ele>584.8</ele>
        <time>2015-06-26T20:09:15Z</time>
      </trkpt>
      <trkpt lat="44.93149" lon="5.26529">
        <ele>584.9</ele>
        <time>2015-06-26T20:09:24Z</time>
      </trkpt>
      <trkpt lat="44.93149" lon="5.2653">
        <ele>585.2</ele>
        <time>2015-06-26T20:09:25Z</time>
      </trkpt>
      <trkpt lat="44.93133" lon="5.26522">
        <ele>586.9</ele>
        <time>2015-06-26T20:09:45Z</time>
      </trkpt>
      <trkpt lat="44.93125" lon="5.26519">
        <ele>587.1</ele>
        <time>2015-06-26T20:09:51Z</time>
      </trkpt>
      <trkpt lat="44.93117" lon="5.26517">
        <ele>586.9</ele>
        <time>2015-06-26T20:09:58Z</time>
      </trkpt>
      <trkpt lat="44.93109" lon="5.26514">
        <ele>587.4</ele>
        <time>2015-06-26T20:10:03Z</time>
      </trkpt>
      <trkpt lat="44.93101" lon="5.2651">
        <ele>587.1</ele>
        <time>2015-06-26T20:10:10Z</time>
      </trkpt>
      <trkpt lat="44.93093" lon="5.26507">
        <ele>587.1</ele>
        <time>2015-06-26T20:10:16Z</time>
      </trkpt>
      <trkpt lat="44.93085" lon="5.26507">
        <ele>587.7</ele>
        <time>2015-06-26T20:10:23Z</time>
      </trkpt>
      <trkpt lat="44.93077" lon="5.26507">
        <ele>588</ele>
        <time>2015-06-26T20:10:31Z</time>
      </trkpt>
      <trkpt lat="44.93076" lon="5.26507">
        <ele>588.1</ele>
        <time>2015-06-26T20:10:32Z</time>
      </trkpt>
      <trkpt lat="44.9306" lon="5.2651">
        <ele>588.9</ele>
        <time>2015-06-26T20:10:46Z</time>
      </trkpt>
      <trkpt lat="44.93052" lon="5.26513">
        <ele>588.6</ele>
        <time>2015-06-26T20:10:53Z</time>
      </trkpt>
      <trkpt lat="44.93044" lon="5.26513">
        <ele>589.5</ele>
        <time>2015-06-26T20:11:10Z</time>
      </trkpt>
      <trkpt lat="44.93036" lon="5.26516">
        <ele>589.9</ele>
        <time>2015-06-26T20:11:19Z</time>
      </trkpt>
      <trkpt lat="44.93027" lon="5.26518">
        <ele>590.9</ele>
        <time>2015-06-26T20:11:36Z</time>
      </trkpt>
      <trkpt lat="44.93027" lon="5.26519">
        <ele>591.2</ele>
        <time>2015-06-26T20:11:37Z</time>
      </trkpt>
      <trkpt lat="44.93024" lon="5.26539">
        <ele>592.8</ele>
        <time>2015-06-26T20:11:53Z</time>
      </trkpt>
      <trkpt lat="44.93031" lon="5.26546">
        <ele>593.2</ele>
        <time>2015-06-26T20:11:58Z</time>
      </trkpt>
      <trkpt lat="44.93038" lon="5.26551">
        <ele>594.3</ele>
        <time>2015-06-26T20:12:06Z</time>
      </trkpt>
      <trkpt lat="44.93045" lon="5.26556">
        <ele>595.3</ele>
        <time>2015-06-26T20:12:13Z</time>
      </trkpt>
      <trkpt lat="44.93054" lon="5.26558">
        <ele>596.5</ele>
        <time>2015-06-26T20:12:22Z</time>
      </trkpt>
      <trkpt lat="44.93062" lon="5.26561">
        <ele>596.9</ele>
        <time>2015-06-26T20:12:30Z</time>
      </trkpt>
      <trkpt lat="44.9307" lon="5.26559">
        <ele>597.6</ele>
        <time>2015-06-26T20:12:36Z</time>
      </trkpt>
      <trkpt lat="44.93078" lon="5.26555">
        <ele>598.2</ele>
        <time>2015-06-26T20:12:49Z</time>
      </trkpt>
      <trkpt lat="44.93079" lon="5.26555">
        <ele>597.9</ele>
        <time>2015-06-26T20:12:50Z</time>
      </trkpt>
      <trkpt lat="44.93091" lon="5.26564">
        <ele>598.5</ele>
        <time>2015-06-26T20:13:15Z</time>
      </trkpt>
      <trkpt lat="44.93096" lon="5.26561">
        <ele>599.2</ele>
        <time>2015-06-26T20:14:10Z</time>
      </trkpt>
      <trkpt lat="44.93096" lon="5.26561">
        <ele>599.2</ele>
        <time>2015-06-26T20:14:10Z</time>
      </trkpt>
    </trkseg>
  </trk>
</gpx>